UAL1515 KSFO-KMFR
Flight info
| Callsign | UAL1515 |
|---|---|
| Flight time | 0h 49m |
| Altitude | 34000 |
| Route | TRUKN2 GRTFL ZUNAS |
| Aircraft | B738/M-SDE2E3FGHIRWXY/LB1 |
Departure
| Time | 2026-04-19 05:30 |
|---|---|
| Airport | San Francisco International Airport (KSFO) |
Arrival
| Time | 2026-04-19 06:19 |
|---|---|
| Airport | Rogue Valley International-Medford Airport (KMFR) |
| Time | Latitude | Longitude | Altitude | Speed | Heading |
|---|---|---|---|---|---|
| 2026-04-19 05:02 | 37.61677 | -122.38052 | 31 ft | 0 kts | 298° |
| 2026-04-19 05:17 | 37.61673 | -122.38043 | 31 ft | 2 kts | 298° |
| 2026-04-19 05:17 | 37.61667 | -122.38028 | 31 ft | 0 kts | 298° |
| 2026-04-19 05:18 | 37.61662 | -122.38016 | 31 ft | 2 kts | 285° |
| 2026-04-19 05:18 | 37.61661 | -122.37997 | 31 ft | 2 kts | 263° |
| 2026-04-19 05:18 | 37.61665 | -122.37978 | 31 ft | 2 kts | 241° |
| 2026-04-19 05:18 | 37.61675 | -122.37963 | 30 ft | 2 kts | 219° |
| 2026-04-19 05:19 | 37.61685 | -122.37955 | 30 ft | 0 kts | 202° |
| 2026-04-19 05:19 | 37.61692 | -122.37952 | 30 ft | 0 kts | 199° |
| 2026-04-19 05:23 | 37.61670 | -122.37962 | 30 ft | 11 kts | 202° |
| 2026-04-19 05:24 | 37.61552 | -122.38038 | 31 ft | 21 kts | 208° |
| 2026-04-19 05:24 | 37.61429 | -122.38101 | 31 ft | 13 kts | 169° |
| 2026-04-19 05:24 | 37.61374 | -122.38015 | 31 ft | 12 kts | 118° |
| 2026-04-19 05:24 | 37.61314 | -122.37872 | 29 ft | 27 kts | 118° |
| 2026-04-19 05:25 | 37.61230 | -122.37624 | 21 ft | 30 kts | 93° |
| 2026-04-19 05:25 | 37.61356 | -122.37432 | 17 ft | 30 kts | 26° |
| 2026-04-19 05:25 | 37.61523 | -122.37302 | 14 ft | 27 kts | 52° |
| 2026-04-19 05:25 | 37.61536 | -122.37075 | 11 ft | 27 kts | 117° |
| 2026-04-19 05:26 | 37.61448 | -122.36868 | 11 ft | 26 kts | 120° |
| 2026-04-19 05:26 | 37.61366 | -122.36766 | 11 ft | 14 kts | 131° |
| 2026-04-19 05:26 | 37.61318 | -122.36667 | 11 ft | 13 kts | 118° |
| 2026-04-19 05:26 | 37.61275 | -122.36568 | 11 ft | 12 kts | 117° |
| 2026-04-19 05:27 | 37.61217 | -122.36426 | 9 ft | 29 kts | 118° |
| 2026-04-19 05:27 | 37.61141 | -122.36246 | 8 ft | 19 kts | 117° |
| 2026-04-19 05:27 | 37.61076 | -122.36091 | 8 ft | 21 kts | 118° |
| 2026-04-19 05:27 | 37.61058 | -122.35957 | 8 ft | 11 kts | 66° |
| 2026-04-19 05:28 | 37.61081 | -122.35922 | 8 ft | 0 kts | 38° |
| 2026-04-19 05:28 | 37.61097 | -122.35908 | 8 ft | 12 kts | 31° |
| 2026-04-19 05:29 | 37.61218 | -122.35942 | 8 ft | 31 kts | 300° |
| 2026-04-19 05:29 | 37.61393 | -122.36359 | 12 ft | 89 kts | 297° |
| 2026-04-19 05:29 | 37.61807 | -122.37342 | 30 ft | 158 kts | 298° |
| 2026-04-19 05:29 | 37.62376 | -122.38619 | 611 ft | 177 kts | 298° |
| 2026-04-19 05:30 | 37.63078 | -122.39921 | 1384 ft | 189 kts | 317° |
| 2026-04-19 05:30 | 37.64301 | -122.40623 | 1926 ft | 205 kts | 354° |
| 2026-04-19 05:30 | 37.65734 | -122.40388 | 2466 ft | 216 kts | 23° |
| 2026-04-19 05:30 | 37.66999 | -122.39380 | 3088 ft | 224 kts | 47° |
| 2026-04-19 05:31 | 37.67812 | -122.37735 | 3786 ft | 228 kts | 72° |
| 2026-04-19 05:31 | 37.68272 | -122.35764 | 4378 ft | 242 kts | 78° |
| 2026-04-19 05:31 | 37.68720 | -122.33662 | 4941 ft | 257 kts | 77° |
| 2026-04-19 05:31 | 37.69241 | -122.31456 | 5661 ft | 266 kts | 76° |
| 2026-04-19 05:32 | 37.69807 | -122.29207 | 6459 ft | 272 kts | 76° |
| 2026-04-19 05:32 | 37.70393 | -122.26945 | 7247 ft | 277 kts | 74° |
| 2026-04-19 05:32 | 37.71191 | -122.24721 | 8006 ft | 286 kts | 60° |
| 2026-04-19 05:32 | 37.72572 | -122.22921 | 8799 ft | 294 kts | 36° |
| 2026-04-19 05:33 | 37.74455 | -122.21864 | 9578 ft | 301 kts | 15° |
| 2026-04-19 05:33 | 37.76534 | -122.21519 | 10338 ft | 306 kts | 3° |
| 2026-04-19 05:33 | 37.78690 | -122.21505 | 10749 ft | 322 kts | 359° |
| 2026-04-19 05:33 | 37.80957 | -122.21598 | 11184 ft | 337 kts | 358° |
| 2026-04-19 05:34 | 37.83337 | -122.21714 | 11598 ft | 352 kts | 358° |
| 2026-04-19 05:34 | 37.85836 | -122.21820 | 12170 ft | 362 kts | 359° |
| 2026-04-19 05:34 | 37.88318 | -122.21906 | 12816 ft | 368 kts | 359° |
| 2026-04-19 05:34 | 37.90887 | -122.21983 | 13561 ft | 371 kts | 359° |
| 2026-04-19 05:35 | 37.93500 | -122.22052 | 14248 ft | 376 kts | 359° |
| 2026-04-19 05:35 | 37.96140 | -122.22121 | 14915 ft | 381 kts | 359° |
| 2026-04-19 05:35 | 37.98782 | -122.22188 | 15645 ft | 384 kts | 359° |
| 2026-04-19 05:35 | 38.01488 | -122.22257 | 16313 ft | 389 kts | 359° |
| 2026-04-19 05:36 | 38.04180 | -122.22327 | 16993 ft | 392 kts | 359° |
| 2026-04-19 05:36 | 38.06953 | -122.22400 | 17623 ft | 397 kts | 359° |
| 2026-04-19 05:36 | 38.09710 | -122.22473 | 18247 ft | 401 kts | 359° |
| 2026-04-19 05:36 | 38.12528 | -122.22549 | 18782 ft | 407 kts | 358° |
| 2026-04-19 05:37 | 38.15398 | -122.22626 | 19371 ft | 411 kts | 358° |
| 2026-04-19 05:37 | 38.18282 | -122.22704 | 19890 ft | 416 kts | 358° |
| 2026-04-19 05:37 | 38.21170 | -122.22781 | 20440 ft | 420 kts | 358° |
| 2026-04-19 05:37 | 38.24141 | -122.22860 | 20962 ft | 424 kts | 358° |
| 2026-04-19 05:38 | 38.27084 | -122.22938 | 21458 ft | 429 kts | 358° |
| 2026-04-19 05:38 | 38.30062 | -122.23018 | 21936 ft | 433 kts | 358° |
| 2026-04-19 05:38 | 38.33107 | -122.23099 | 22400 ft | 437 kts | 358° |
| 2026-04-19 05:38 | 38.36177 | -122.23258 | 22886 ft | 440 kts | 354° |
| 2026-04-19 05:39 | 38.39231 | -122.23616 | 23387 ft | 442 kts | 352° |
| 2026-04-19 05:39 | 38.42282 | -122.24098 | 23854 ft | 445 kts | 351° |
| 2026-04-19 05:39 | 38.45355 | -122.24640 | 24331 ft | 448 kts | 351° |
| 2026-04-19 05:39 | 38.48442 | -122.25202 | 24841 ft | 450 kts | 350° |
| 2026-04-19 05:40 | 38.51528 | -122.25764 | 25292 ft | 453 kts | 350° |
| 2026-04-19 05:40 | 38.54656 | -122.26325 | 25726 ft | 456 kts | 351° |
| 2026-04-19 05:40 | 38.57802 | -122.26881 | 26157 ft | 459 kts | 351° |
| 2026-04-19 05:40 | 38.61009 | -122.27441 | 26609 ft | 461 kts | 351° |
| 2026-04-19 05:41 | 38.64157 | -122.27985 | 27059 ft | 462 kts | 351° |
| 2026-04-19 05:41 | 38.67368 | -122.28537 | 27528 ft | 464 kts | 351° |
| 2026-04-19 05:41 | 38.70564 | -122.29084 | 27950 ft | 466 kts | 351° |
| 2026-04-19 05:41 | 38.73796 | -122.29634 | 28349 ft | 468 kts | 351° |
| 2026-04-19 05:42 | 38.77055 | -122.30187 | 28707 ft | 472 kts | 351° |
| 2026-04-19 05:42 | 38.80322 | -122.30739 | 29000 ft | 477 kts | 351° |
| 2026-04-19 05:42 | 38.83639 | -122.31302 | 29209 ft | 483 kts | 351° |
| 2026-04-19 05:42 | 38.87024 | -122.31875 | 29603 ft | 485 kts | 351° |
| 2026-04-19 05:43 | 38.90389 | -122.32443 | 30091 ft | 485 kts | 351° |
| 2026-04-19 05:43 | 38.93750 | -122.33011 | 30593 ft | 484 kts | 351° |
| 2026-04-19 05:43 | 38.97077 | -122.33575 | 31085 ft | 483 kts | 351° |
| 2026-04-19 05:43 | 39.00386 | -122.34138 | 31519 ft | 483 kts | 351° |
| 2026-04-19 05:44 | 39.03744 | -122.34708 | 31921 ft | 484 kts | 351° |
| 2026-04-19 05:44 | 39.07088 | -122.35276 | 32355 ft | 484 kts | 351° |
| 2026-04-19 05:44 | 39.10408 | -122.35842 | 32817 ft | 483 kts | 351° |
| 2026-04-19 05:44 | 39.13774 | -122.36415 | 33293 ft | 481 kts | 351° |
| 2026-04-19 05:45 | 39.17089 | -122.36980 | 33683 ft | 481 kts | 351° |
| 2026-04-19 05:45 | 39.20369 | -122.37540 | 33963 ft | 479 kts | 350° |
| 2026-04-19 05:45 | 39.23639 | -122.38099 | 33962 ft | 466 kts | 351° |
| 2026-04-19 05:45 | 39.26804 | -122.38637 | 33961 ft | 455 kts | 350° |
| 2026-04-19 05:46 | 39.29922 | -122.39171 | 33968 ft | 454 kts | 350° |
| 2026-04-19 05:46 | 39.36241 | -122.40262 | 33967 ft | 459 kts | 350° |
| 2026-04-19 05:47 | 39.42585 | -122.41352 | 33967 ft | 458 kts | 350° |
| 2026-04-19 05:47 | 39.48875 | -122.42439 | 33965 ft | 458 kts | 350° |
| 2026-04-19 05:48 | 39.55181 | -122.43531 | 33966 ft | 459 kts | 350° |
| 2026-04-19 05:48 | 39.61498 | -122.44626 | 33970 ft | 459 kts | 350° |
| 2026-04-19 05:49 | 39.67832 | -122.45726 | 33973 ft | 459 kts | 350° |
| 2026-04-19 05:49 | 39.74131 | -122.46822 | 33979 ft | 459 kts | 350° |
| 2026-04-19 05:50 | 39.80473 | -122.47927 | 33975 ft | 458 kts | 350° |
| 2026-04-19 05:50 | 39.86774 | -122.49026 | 33973 ft | 459 kts | 350° |
| 2026-04-19 05:51 | 39.93112 | -122.50133 | 33974 ft | 460 kts | 350° |
| 2026-04-19 05:51 | 39.99423 | -122.51234 | 33985 ft | 458 kts | 350° |
| 2026-04-19 05:52 | 40.05748 | -122.52338 | 33983 ft | 458 kts | 349° |
| 2026-04-19 05:52 | 40.12086 | -122.53451 | 33993 ft | 459 kts | 349° |
| 2026-04-19 05:53 | 40.18408 | -122.54565 | 33982 ft | 459 kts | 349° |
| 2026-04-19 05:53 | 40.24698 | -122.55676 | 33983 ft | 458 kts | 350° |
| 2026-04-19 05:54 | 40.31041 | -122.56798 | 33985 ft | 458 kts | 349° |
| 2026-04-19 05:54 | 40.37331 | -122.57911 | 33998 ft | 458 kts | 349° |
| 2026-04-19 05:55 | 40.43642 | -122.59032 | 34002 ft | 459 kts | 349° |
| 2026-04-19 05:55 | 40.49969 | -122.60155 | 34008 ft | 458 kts | 349° |
| 2026-04-19 05:56 | 40.56298 | -122.61282 | 34020 ft | 459 kts | 349° |
| 2026-04-19 05:56 | 40.62507 | -122.62385 | 34020 ft | 440 kts | 349° |
| 2026-04-19 05:56 | 40.65514 | -122.62917 | 33793 ft | 432 kts | 349° |
| 2026-04-19 05:57 | 40.68500 | -122.63439 | 33392 ft | 432 kts | 349° |
| 2026-04-19 05:57 | 40.71470 | -122.63966 | 32897 ft | 430 kts | 350° |
| 2026-04-19 05:57 | 40.74398 | -122.64491 | 32391 ft | 428 kts | 349° |
| 2026-04-19 05:57 | 40.77348 | -122.65027 | 31892 ft | 426 kts | 349° |
| 2026-04-19 05:58 | 40.80270 | -122.65556 | 31388 ft | 424 kts | 349° |
| 2026-04-19 05:58 | 40.83179 | -122.66082 | 30880 ft | 422 kts | 349° |
| 2026-04-19 05:58 | 40.86093 | -122.66612 | 30368 ft | 420 kts | 349° |
| 2026-04-19 05:58 | 40.88959 | -122.67132 | 29865 ft | 418 kts | 349° |
| 2026-04-19 05:59 | 40.91864 | -122.67656 | 29362 ft | 416 kts | 350° |
| 2026-04-19 05:59 | 40.94708 | -122.68170 | 28859 ft | 414 kts | 350° |
| 2026-04-19 05:59 | 40.97551 | -122.68682 | 28353 ft | 413 kts | 350° |
| 2026-04-19 05:59 | 41.00372 | -122.69190 | 27858 ft | 411 kts | 350° |
| 2026-04-19 06:00 | 41.03234 | -122.69709 | 27349 ft | 409 kts | 350° |
| 2026-04-19 06:00 | 41.06049 | -122.70220 | 26861 ft | 407 kts | 350° |
| 2026-04-19 06:00 | 41.08869 | -122.70731 | 26364 ft | 406 kts | 350° |
| 2026-04-19 06:00 | 41.11625 | -122.71231 | 25871 ft | 404 kts | 350° |
| 2026-04-19 06:01 | 41.14396 | -122.71732 | 25379 ft | 402 kts | 350° |
| 2026-04-19 06:01 | 41.17204 | -122.72244 | 24892 ft | 399 kts | 350° |
| 2026-04-19 06:01 | 41.19939 | -122.72742 | 24410 ft | 397 kts | 350° |
| 2026-04-19 06:01 | 41.22659 | -122.73236 | 23935 ft | 394 kts | 351° |
| 2026-04-19 06:02 | 41.25352 | -122.73724 | 23455 ft | 392 kts | 351° |
| 2026-04-19 06:02 | 41.28048 | -122.74213 | 22984 ft | 390 kts | 351° |
| 2026-04-19 06:02 | 41.30732 | -122.74699 | 22504 ft | 389 kts | 351° |
| 2026-04-19 06:02 | 41.33429 | -122.75190 | 22018 ft | 387 kts | 351° |
| 2026-04-19 06:03 | 41.36068 | -122.75671 | 21536 ft | 386 kts | 351° |
| 2026-04-19 06:03 | 41.38723 | -122.76154 | 21051 ft | 385 kts | 351° |
| 2026-04-19 06:03 | 41.41373 | -122.76638 | 20569 ft | 384 kts | 351° |
| 2026-04-19 06:03 | 41.43897 | -122.77099 | 20117 ft | 382 kts | 351° |
| 2026-04-19 06:04 | 41.46535 | -122.77580 | 19628 ft | 381 kts | 351° |
| 2026-04-19 06:04 | 41.49152 | -122.78059 | 19156 ft | 380 kts | 351° |
| 2026-04-19 06:04 | 41.51749 | -122.78535 | 18706 ft | 378 kts | 351° |
| 2026-04-19 06:04 | 41.54346 | -122.79011 | 18258 ft | 375 kts | 351° |
| 2026-04-19 06:05 | 41.56924 | -122.79485 | 17806 ft | 373 kts | 351° |
| 2026-04-19 06:05 | 41.59493 | -122.79957 | 17365 ft | 371 kts | 351° |
| 2026-04-19 06:05 | 41.62029 | -122.80424 | 16902 ft | 369 kts | 351° |
| 2026-04-19 06:05 | 41.64571 | -122.80894 | 16440 ft | 367 kts | 351° |
| 2026-04-19 06:06 | 41.67102 | -122.81360 | 15985 ft | 364 kts | 351° |
| 2026-04-19 06:06 | 41.69593 | -122.81820 | 15497 ft | 359 kts | 351° |
| 2026-04-19 06:06 | 41.72008 | -122.82264 | 15089 ft | 348 kts | 351° |
| 2026-04-19 06:06 | 41.74396 | -122.82705 | 14631 ft | 341 kts | 351° |
| 2026-04-19 06:07 | 41.76698 | -122.83131 | 14207 ft | 334 kts | 351° |
| 2026-04-19 06:07 | 41.78986 | -122.83554 | 13787 ft | 327 kts | 351° |
| 2026-04-19 06:07 | 41.81230 | -122.83971 | 13400 ft | 322 kts | 351° |
| 2026-04-19 06:07 | 41.83450 | -122.84328 | 12974 ft | 322 kts | 356° |
| 2026-04-19 06:08 | 41.85666 | -122.84183 | 12570 ft | 319 kts | 15° |
| 2026-04-19 06:08 | 41.87614 | -122.82958 | 12206 ft | 311 kts | 40° |
| 2026-04-19 06:08 | 41.89189 | -122.80988 | 11819 ft | 307 kts | 50° |
| 2026-04-19 06:08 | 41.90609 | -122.78882 | 11432 ft | 305 kts | 51° |
| 2026-04-19 06:09 | 41.91978 | -122.76839 | 11061 ft | 304 kts | 50° |
| 2026-04-19 06:09 | 41.93411 | -122.74770 | 10679 ft | 302 kts | 50° |
| 2026-04-19 06:09 | 41.94844 | -122.72756 | 10303 ft | 301 kts | 49° |
| 2026-04-19 06:09 | 41.96300 | -122.70746 | 9970 ft | 294 kts | 48° |
| 2026-04-19 06:10 | 41.97705 | -122.68825 | 9776 ft | 284 kts | 48° |
| 2026-04-19 06:10 | 41.99063 | -122.66970 | 9651 ft | 268 kts | 48° |
| 2026-04-19 06:10 | 42.00318 | -122.65254 | 9581 ft | 251 kts | 49° |
| 2026-04-19 06:10 | 42.01546 | -122.63586 | 9456 ft | 249 kts | 47° |
| 2026-04-19 06:11 | 42.02842 | -122.62071 | 9148 ft | 250 kts | 38° |
| 2026-04-19 06:11 | 42.04341 | -122.60925 | 8858 ft | 243 kts | 26° |
| 2026-04-19 06:11 | 42.05891 | -122.60171 | 8597 ft | 236 kts | 18° |
| 2026-04-19 06:12 | 42.09058 | -122.59482 | 8095 ft | 227 kts | 1° |
| 2026-04-19 06:12 | 42.10633 | -122.59632 | 7858 ft | 228 kts | 352° |
| 2026-04-19 06:12 | 42.12165 | -122.60061 | 7593 ft | 225 kts | 345° |
| 2026-04-19 06:12 | 42.13649 | -122.60757 | 7267 ft | 226 kts | 336° |
| 2026-04-19 06:13 | 42.15064 | -122.61758 | 6848 ft | 230 kts | 328° |
| 2026-04-19 06:13 | 42.16344 | -122.63006 | 6484 ft | 228 kts | 320° |
| 2026-04-19 06:13 | 42.17485 | -122.64467 | 6163 ft | 223 kts | 313° |
| 2026-04-19 06:13 | 42.18504 | -122.65998 | 5866 ft | 219 kts | 311° |
| 2026-04-19 06:14 | 42.19500 | -122.67542 | 5523 ft | 215 kts | 311° |
| 2026-04-19 06:14 | 42.20470 | -122.69031 | 5236 ft | 209 kts | 311° |
| 2026-04-19 06:14 | 42.21412 | -122.70466 | 4955 ft | 204 kts | 312° |
| 2026-04-19 06:14 | 42.22347 | -122.71892 | 4690 ft | 198 kts | 310° |
| 2026-04-19 06:15 | 42.23124 | -122.73354 | 4444 ft | 192 kts | 302° |
| 2026-04-19 06:15 | 42.23796 | -122.74906 | 4127 ft | 186 kts | 300° |
| 2026-04-19 06:15 | 42.24414 | -122.76362 | 3835 ft | 175 kts | 301° |
| 2026-04-19 06:15 | 42.25008 | -122.77722 | 3624 ft | 161 kts | 301° |
| 2026-04-19 06:16 | 42.25610 | -122.78992 | 3513 ft | 163 kts | 306° |
| 2026-04-19 06:16 | 42.26337 | -122.80164 | 3327 ft | 161 kts | 315° |
| 2026-04-19 06:16 | 42.27148 | -122.81172 | 3172 ft | 160 kts | 321° |
| 2026-04-19 06:16 | 42.28053 | -122.82073 | 3011 ft | 159 kts | 327° |
| 2026-04-19 06:17 | 42.29001 | -122.82819 | 2861 ft | 159 kts | 334° |
| 2026-04-19 06:17 | 42.29996 | -122.83424 | 2725 ft | 157 kts | 339° |
| 2026-04-19 06:17 | 42.31015 | -122.83938 | 2591 ft | 159 kts | 340° |
| 2026-04-19 06:17 | 42.32047 | -122.84449 | 2314 ft | 157 kts | 339° |
| 2026-04-19 06:18 | 42.33062 | -122.84981 | 2091 ft | 153 kts | 337° |
| 2026-04-19 06:18 | 42.34062 | -122.85508 | 1861 ft | 157 kts | 338° |
| 2026-04-19 06:18 | 42.35064 | -122.86055 | 1645 ft | 155 kts | 337° |
| 2026-04-19 06:18 | 42.36063 | -122.86571 | 1441 ft | 152 kts | 337° |
| 2026-04-19 06:19 | 42.37030 | -122.87079 | 1334 ft | 141 kts | 338° |
| 2026-04-19 06:19 | 42.37786 | -122.87479 | 1317 ft | 85 kts | 339° |
| 2026-04-19 06:19 | 42.38164 | -122.87676 | 1313 ft | 33 kts | 340° |
| 2026-04-19 06:19 | 42.38380 | -122.87791 | 1310 ft | 32 kts | 339° |
| 2026-04-19 06:20 | 42.38571 | -122.87897 | 1308 ft | 24 kts | 314° |
| 2026-04-19 06:20 | 42.38524 | -122.88026 | 1308 ft | 17 kts | 165° |
| 2026-04-19 06:20 | 42.38424 | -122.87976 | 1309 ft | 12 kts | 158° |
| 2026-04-19 06:20 | 42.38353 | -122.87938 | 1310 ft | 9 kts | 158° |
| 2026-04-19 06:21 | 42.38285 | -122.87902 | 1311 ft | 13 kts | 159° |
| 2026-04-19 06:21 | 42.38179 | -122.87846 | 1312 ft | 19 kts | 158° |
| 2026-04-19 06:21 | 42.38042 | -122.87775 | 1313 ft | 22 kts | 158° |
| 2026-04-19 06:21 | 42.37884 | -122.87692 | 1315 ft | 26 kts | 158° |
| 2026-04-19 06:22 | 42.37701 | -122.87597 | 1317 ft | 29 kts | 158° |
| 2026-04-19 06:22 | 42.37516 | -122.87528 | 1319 ft | 24 kts | 179° |
| 2026-04-19 06:22 | 42.37360 | -122.87528 | 1321 ft | 20 kts | 179° |
| 2026-04-19 06:22 | 42.37236 | -122.87512 | 1322 ft | 15 kts | 163° |
| 2026-04-19 06:23 | 42.37145 | -122.87474 | 1323 ft | 14 kts | 159° |
| 2026-04-19 06:23 | 42.37056 | -122.87382 | 1324 ft | 17 kts | 121° |
| 2026-04-19 06:23 | 42.36963 | -122.87350 | 1325 ft | 12 kts | 220° |
| 2026-04-19 06:23 | 42.36956 | -122.87360 | 1325 ft | 0 kts | 234° |
| 2026-04-19 06:24 | 42.36946 | -122.87380 | 1325 ft | 0 kts | 250° |